Time;durP1;ratioP1;P1;durP2;ratioP2;P2;SDS_P1;SDS_P2;PMS_P1;PMS_P2;Temp;Humidity;BMP_temperature;BMP_pressure;BME280_temperature;BME280_humidity;BME280_pressure;Samples;Min_cycle;Max_cycle;Signal;HPM_P1;HPM_P2
2023/09/20 00:02:07;;;;;;;2.45;1.00;;;;;;;23.59;100.00;100552.34;5019476;28;20049;-47
2023/09/20 00:04:35;;;;;;;3.75;0.88;;;;;;;23.60;100.00;100553.94;5016148;28;20318;-47
2023/09/20 00:07:02;;;;;;;3.00;0.88;;;;;;;23.60;100.00;100553.94;5018838;28;20054;-48
2023/09/20 00:09:30;;;;;;;3.95;0.70;;;;;;;23.69;100.00;100558.59;5020601;28;20508;-48
2023/09/20 00:11:57;;;;;;;3.85;0.90;;;;;;;23.70;100.00;100558.06;5023913;28;20850;-40
2023/09/20 00:14:23;;;;;;;6.07;1.00;;;;;;;23.80;100.00;100561.47;5030117;28;20505;-48
2023/09/20 00:16:52;;;;;;;3.33;0.80;;;;;;;23.81;100.00;100563.00;5020708;28;20738;-47
2023/09/20 00:19:19;;;;;;;2.83;0.93;;;;;;;23.81;100.00;100563.00;5012644;28;20484;-47
2023/09/20 00:21:46;;;;;;;3.45;1.08;;;;;;;23.80;100.00;100558.63;5013877;28;20045;-46
2023/09/20 00:24:13;;;;;;;5.57;1.15;;;;;;;23.85;100.00;100570.00;5027608;28;20554;-51
2023/09/20 00:26:39;;;;;;;3.38;0.90;;;;;;;23.86;100.00;100567.94;5017542;28;20086;-46
2023/09/20 00:29:06;;;;;;;6.60;0.85;;;;;;;24.03;100.00;100557.38;5014963;28;20132;-47
2023/09/20 00:31:33;;;;;;;11.27;1.00;;;;;;;24.10;100.00;100574.66;5024573;28;20056;-45
2023/09/20 00:34:03;;;;;;;8.30;1.38;;;;;;;24.00;100.00;100556.31;5014040;28;20049;-49
2023/09/20 00:36:30;;;;;;;6.15;1.08;;;;;;;23.90;100.00;100563.53;5015912;28;20045;-48
2023/09/20 00:38:58;;;;;;;2.78;0.63;;;;;;;23.94;100.00;100560.47;5015723;28;20773;-46
2023/09/20 00:41:25;;;;;;;10.15;1.25;;;;;;;24.00;100.00;100561.25;5013030;28;20046;-49
2023/09/20 00:43:52;;;;;;;6.40;1.02;;;;;;;23.98;100.00;100560.97;5021161;28;20500;-47
2023/09/20 00:46:20;;;;;;;5.57;1.13;;;;;;;23.98;100.00;100552.47;5020182;28;20064;-48
2023/09/20 00:48:50;;;;;;;3.45;0.75;;;;;;;24.01;100.00;100569.25;5014713;28;20042;-48
2023/09/20 00:51:18;;;;;;;2.13;0.70;;;;;;;24.02;100.00;100584.22;5026961;28;20081;-52
2023/09/20 00:53:45;;;;;;;4.57;0.98;;;;;;;24.01;100.00;100572.09;5011667;28;20042;-49
2023/09/20 00:56:11;;;;;;;3.70;0.88;;;;;;;24.02;100.00;100570.81;5022664;28;20392;-46
2023/09/20 00:58:39;;;;;;;2.40;0.73;;;;;;;24.02;100.00;100570.81;5023721;28;20053;-50
2023/09/20 01:01:06;;;;;;;3.80;0.93;;;;;;;24.02;100.00;100567.16;5012447;28;20053;-48
2023/09/20 01:03:33;;;;;;;3.83;1.02;;;;;;;24.02;100.00;100570.00;5027056;28;20080;-48
2023/09/20 01:06:04;;;;;;;2.55;0.63;;;;;;;24.03;100.00;100560.97;5013498;28;20165;-47
2023/09/20 01:08:34;;;;;;;3.63;0.88;;;;;;;24.03;100.00;100563.06;5015411;28;20693;-44
2023/09/20 01:11:01;;;;;;;2.90;0.90;;;;;;;24.02;100.00;100561.50;5013966;28;20077;-46
2023/09/20 01:13:28;;;;;;;1.48;0.80;;;;;;;24.04;100.00;100564.59;5017755;28;20515;-50
2023/09/20 01:15:54;;;;;;;1.77;0.80;;;;;;;24.05;100.00;100563.31;5017844;28;20045;-46
2023/09/20 01:18:21;;;;;;;5.28;1.50;;;;;;;24.05;100.00;100561.25;5021949;28;20447;-46
2023/09/20 01:20:48;;;;;;;1.60;0.70;;;;;;;24.05;100.00;100560.47;5022166;28;20065;-51
2023/09/20 01:23:14;;;;;;;1.80;0.70;;;;;;;24.06;100.00;100550.66;5027159;28;20458;-49
2023/09/20 01:25:43;;;;;;;2.28;0.93;;;;;;;24.06;100.00;100559.97;5021644;28;20045;-47
2023/09/20 01:28:10;;;;;;;4.28;0.80;;;;;;;24.06;100.00;100559.97;5021899;28;20177;-50
2023/09/20 01:30:40;;;;;;;3.30;0.80;;;;;;;24.05;100.00;100561.25;5016161;28;20073;-47
2023/09/20 01:33:07;;;;;;;3.47;0.65;;;;;;;24.07;100.00;100564.34;5018003;28;20081;-47
2023/09/20 01:35:36;;;;;;;2.40;0.88;;;;;;;24.08;100.00;100565.13;5011769;28;20133;-48
2023/09/20 01:38:06;;;;;;;1.90;0.82;;;;;;;24.07;100.00;100558.66;5012829;28;20052;-47
2023/09/20 01:40:34;;;;;;;2.28;0.75;;;;;;;24.07;100.00;100558.66;5027150;28;20088;-47
2023/09/20 01:43:08;;;;;;;2.72;0.85;;;;;;;24.06;100.00;100557.13;5022657;28;20042;-49
2023/09/20 01:45:36;;;;;;;1.70;0.93;;;;;;;24.05;100.00;100561.25;5025455;28;20080;-48
2023/09/20 01:48:08;;;;;;;2.60;0.80;;;;;;;24.06;100.00;100559.16;5015243;28;20637;-49
2023/09/20 01:50:36;;;;;;;1.45;0.90;;;;;;;24.06;100.00;100559.97;5029729;28;20084;-47
2023/09/20 01:53:09;;;;;;;2.92;0.75;;;;;;;24.07;100.00;100561.50;5011014;28;20045;-50
2023/09/20 01:55:38;;;;;;;3.30;0.80;;;;;;;24.08;100.00;100557.38;5018245;28;20057;-48
2023/09/20 01:58:06;;;;;;;1.77;0.75;;;;;;;24.09;100.00;100552.47;5020982;28;20052;-48
2023/09/20 02:00:38;;;;;;;0.98;0.70;;;;;;;24.09;100.00;100543.94;5017552;28;20061;-47
2023/09/20 02:03:09;;;;;;;2.85;0.70;;;;;;;24.09;100.00;100560.97;5018783;28;20084;-46
2023/09/20 02:05:36;;;;;;;3.63;0.70;;;;;;;24.10;100.00;100554.03;5020507;28;20523;-51
2023/09/20 02:08:04;;;;;;;6.10;1.25;;;;;;;24.08;100.00;100542.41;5018786;28;20060;-50
2023/09/20 02:10:32;;;;;;;3.95;0.95;;;;;;;24.05;100.00;100538.53;5010829;28;20137;-50
2023/09/20 02:12:59;;;;;;;4.53;1.17;;;;;;;24.03;100.00;100540.34;5015687;28;20108;-47
2023/09/20 02:15:27;;;;;;;1.75;0.75;;;;;;;24.01;100.00;100545.75;5018460;28;20419;-50
2023/09/20 02:17:54;;;;;;;3.78;0.90;;;;;;;24.00;100.00;100541.38;5015541;28;20073;-46
2023/09/20 02:20:23;;;;;;;1.73;0.68;;;;;;;23.98;100.00;100532.59;5020489;28;20053;-47
2023/09/20 02:22:52;;;;;;;0.57;0.57;;;;;;;23.98;100.00;100535.44;5016737;28;20049;-48
2023/09/20 02:25:20;;;;;;;5.80;0.80;;;;;;;23.96;100.00;100530.25;5019145;28;20048;-47
2023/09/20 02:27:52;;;;;;;1.42;0.90;;;;;;;23.94;100.00;100532.06;5016109;28;20045;-50
2023/09/20 02:30:24;;;;;;;1.40;0.75;;;;;;;23.94;100.00;100532.84;5014784;28;20088;-49
2023/09/20 02:32:57;;;;;;;3.50;0.73;;;;;;;23.91;100.00;100525.38;5014076;28;20057;-48
2023/09/20 02:35:30;;;;;;;2.28;0.70;;;;;;;23.93;100.00;100531.28;5019590;28;20045;-51
2023/09/20 02:37:59;;;;;;;1.48;0.65;;;;;;;23.93;100.00;100527.69;5017425;28;20065;-48
2023/09/20 02:40:27;;;;;;;2.63;0.75;;;;;;;23.91;100.00;100524.56;5019330;28;20345;-47
2023/09/20 02:42:59;;;;;;;1.80;0.80;;;;;;;23.92;100.00;100523.28;5021254;28;20428;-47
2023/09/20 02:45:29;;;;;;;2.13;0.88;;;;;;;23.91;100.00;100527.41;5018736;28;20100;-47
2023/09/20 02:47:56;;;;;;;0.98;0.52;;;;;;;23.88;100.00;100526.38;5012801;28;20142;-48
2023/09/20 02:50:24;;;;;;;2.47;0.70;;;;;;;23.84;100.00;100510.91;5009159;28;20084;-47
2023/09/20 02:52:52;;;;;;;3.75;0.90;;;;;;;23.86;100.00;100511.16;5010836;28;20053;-50
2023/09/20 02:55:23;;;;;;;1.08;0.70;;;;;;;23.89;100.00;100513.75;5020144;28;20049;-49
2023/09/20 02:57:52;;;;;;;2.38;0.60;;;;;;;23.87;100.00;100509.88;5028024;28;20415;-46
2023/09/20 03:00:28;;;;;;;4.78;0.80;;;;;;;23.86;100.00;100511.16;5028061;28;20475;-51
2023/09/20 03:02:57;;;;;;;2.35;0.75;;;;;;;23.88;100.00;100502.88;5008169;28;20069;-49
2023/09/20 03:05:26;;;;;;;1.42;0.90;;;;;;;23.85;100.00;100503.91;5020423;28;20053;-47
2023/09/20 03:07:54;;;;;;;1.20;0.80;;;;;;;23.86;100.00;100502.66;5012366;28;20061;-50
2023/09/20 03:10:22;;;;;;;5.18;0.60;;;;;;;23.86;100.00;100503.41;5025313;28;20084;-47
2023/09/20 03:12:51;;;;;;;2.90;0.65;;;;;;;23.85;100.00;100498.25;5014837;28;20084;-48
2023/09/20 03:15:23;;;;;;;2.08;0.80;;;;;;;23.80;100.00;100482.75;5023789;28;20155;-55
2023/09/20 03:17:52;;;;;;;1.35;0.70;;;;;;;23.84;100.00;100488.97;5017004;28;20042;-49
2023/09/20 03:20:23;;;;;;;0.73;0.57;;;;;;;23.84;100.00;100482.50;5014975;28;20397;-50
2023/09/20 03:22:57;;;;;;;1.80;0.70;;;;;;;23.83;100.00;100481.72;5028971;28;20491;-47
2023/09/20 03:25:25;;;;;;;1.98;0.80;;;;;;;23.82;100.00;100485.06;5017969;28;20053;-47
2023/09/20 03:27:53;;;;;;;1.00;0.60;;;;;;;23.81;100.00;100480.69;5023603;28;20046;-48
2023/09/20 03:30:20;;;;;;;2.80;0.82;;;;;;;23.82;100.00;100473.72;5022263;28;20053;-47
2023/09/20 03:32:48;;;;;;;1.48;0.80;;;;;;;23.81;100.00;100477.84;5021998;28;20698;-50
2023/09/20 03:35:15;;;;;;;1.30;0.55;;;;;;;23.81;100.00;100472.19;5019252;28;20399;-50
2023/09/20 03:37:43;;;;;;;2.92;0.82;;;;;;;23.80;100.00;100476.31;5013956;28;20084;-48
2023/09/20 03:40:17;;;;;;;1.15;0.70;;;;;;;23.78;100.00;100470.38;5026506;28;20049;-50
2023/09/20 03:42:44;;;;;;;0.68;0.57;;;;;;;23.78;100.00;100470.38;5021261;28;20442;-50
2023/09/20 03:45:13;;;;;;;0.95;0.63;;;;;;;23.80;100.00;100467.78;5021276;28;20049;-47
2023/09/20 03:47:45;;;;;;;3.72;0.65;;;;;;;23.79;100.00;100460.56;5011711;28;20079;-51
2023/09/20 03:50:12;;;;;;;2.40;0.73;;;;;;;23.79;100.00;100466.22;5016171;28;20155;-49
2023/09/20 03:52:39;;;;;;;1.95;0.50;;;;;;;23.79;100.00;100452.81;5017543;28;20049;-48
2023/09/20 03:55:07;;;;;;;2.08;0.68;;;;;;;23.76;100.00;100456.69;5021060;28;20121;-50
2023/09/20 03:57:34;;;;;;;0.75;0.47;;;;;;;23.78;100.00;100456.97;5025243;28;20068;-50
2023/09/20 04:00:03;;;;;;;3.35;0.65;;;;;;;23.77;100.00;100454.63;5020504;28;20128;-48
2023/09/20 04:02:30;;;;;;;1.75;0.80;;;;;;;23.77;100.00;100451.78;5019135;28;20045;-47
2023/09/20 04:04:56;;;;;;;2.05;0.98;;;;;;;23.75;100.00;100451.53;5022215;28;20076;-48
2023/09/20 04:07:24;;;;;;;2.17;0.73;;;;;;;23.75;100.00;100446.63;5020170;28;20192;-47
2023/09/20 04:09:50;;;;;;;1.23;0.57;;;;;;;23.75;100.00;100449.47;5018034;28;20053;-51
2023/09/20 04:12:17;;;;;;;5.35;0.70;;;;;;;23.76;100.00;100441.75;5013556;28;20128;-50
2023/09/20 04:14:43;;;;;;;1.30;0.63;;;;;;;23.75;100.00;100434.50;5013669;28;20423;-48
2023/09/20 04:17:10;;;;;;;0.80;0.52;;;;;;;23.76;100.00;100444.56;5027190;28;20071;-48
2023/09/20 04:19:39;;;;;;;4.43;0.60;;;;;;;23.76;100.00;100427.53;5011097;28;20049;-49
2023/09/20 04:22:06;;;;;;;1.50;0.70;;;;;;;23.76;100.00;100436.06;5013306;28;20045;-47
2023/09/20 04:24:33;;;;;;;3.58;0.65;;;;;;;23.75;100.00;100434.50;5036314;28;20160;-51
2023/09/20 04:27:02;;;;;;;0.73;0.43;;;;;;;23.76;100.00;100433.22;5021469;28;20073;-50
2023/09/20 04:29:32;;;;;;;3.78;0.68;;;;;;;23.74;100.00;100435.78;5015307;28;20061;-50
2023/09/20 04:31:58;;;;;;;4.15;0.77;;;;;;;23.75;100.00;100434.50;5013618;28;20080;-52
2023/09/20 04:34:25;;;;;;;2.28;0.80;;;;;;;23.75;100.00;100428.81;5012124;28;20050;-53
2023/09/20 04:36:52;;;;;;;1.50;0.35;;;;;;;23.76;100.00;100428.31;5021293;28;20095;-49
2023/09/20 04:39:24;;;;;;;3.22;0.60;;;;;;;23.78;100.00;100427.78;5008834;28;20034;-53
2023/09/20 04:41:51;;;;;;;0.65;0.40;;;;;;;23.79;100.00;100426.50;5023769;28;20042;-53
2023/09/20 04:44:18;;;;;;;3.15;0.63;;;;;;;23.77;100.00;100429.09;5012593;28;20115;-51
2023/09/20 04:46:47;;;;;;;2.22;0.70;;;;;;;23.76;100.00;100425.47;5014230;28;20074;-50
2023/09/20 04:49:14;;;;;;;1.75;0.80;;;;;;;23.74;100.00;100419.56;5017756;28;20054;-51
2023/09/20 04:51:42;;;;;;;2.08;0.52;;;;;;;23.74;100.00;100432.94;5023559;28;20136;-49
2023/09/20 04:54:09;;;;;;;1.27;0.50;;;;;;;23.74;100.00;100432.94;5026002;28;20050;-49
2023/09/20 04:56:36;;;;;;;1.73;0.68;;;;;;;23.72;100.00;100424.94;5021191;28;20700;-50
2023/09/20 04:59:04;;;;;;;1.73;0.70;;;;;;;23.72;100.00;100433.47;5018000;28;20045;-48
2023/09/20 05:01:31;;;;;;;1.67;0.55;;;;;;;23.73;100.00;100437.09;5015287;28;20046;-50
2023/09/20 05:03:58;;;;;;;2.60;0.60;;;;;;;23.72;100.00;100438.34;5020802;28;20128;-53
2023/09/20 05:06:24;;;;;;;2.13;0.63;;;;;;;23.73;100.00;100442.75;5019013;28;20050;-46
2023/09/20 05:08:51;;;;;;;2.63;0.90;;;;;;;23.72;100.00;100435.53;5018889;28;20056;-47
2023/09/20 05:11:18;;;;;;;1.92;0.60;;;;;;;23.72;100.00;100441.97;5014444;28;20057;-52
2023/09/20 05:13:45;;;;;;;2.13;0.75;;;;;;;23.72;100.00;100446.88;5013829;28;20048;-48
2023/09/20 05:16:12;;;;;;;2.78;0.70;;;;;;;23.71;100.00;100442.50;5017214;28;20097;-50
2023/09/20 05:18:39;;;;;;;1.70;0.90;;;;;;;23.70;100.00;100450.22;5014179;28;20057;-52
2023/09/20 05:21:06;;;;;;;1.33;0.77;;;;;;;23.70;100.00;100449.47;5016931;28;20096;-48
2023/09/20 05:23:32;;;;;;;2.65;0.98;;;;;;;23.71;100.00;100445.34;5013380;28;20573;-51
2023/09/20 05:25:59;;;;;;;1.17;0.47;;;;;;;23.69;100.00;100448.69;5025380;28;20496;-50
2023/09/20 05:28:26;;;;;;;3.38;0.80;;;;;;;23.69;100.00;100450.78;5013920;28;20056;-51
2023/09/20 05:30:52;;;;;;;2.05;0.60;;;;;;;23.69;100.00;100448.69;5020653;28;20054;-53
2023/09/20 05:33:19;;;;;;;1.25;0.60;;;;;;;23.68;100.00;100440.69;5011465;28;20050;-51
2023/09/20 05:35:47;;;;;;;1.58;0.60;;;;;;;23.69;100.00;100428.06;5023812;28;20309;-47
2023/09/20 05:38:15;;;;;;;1.40;0.60;;;;;;;23.69;100.00;100436.56;5011222;28;20137;-51
2023/09/20 05:40:43;;;;;;;1.15;0.70;;;;;;;23.68;100.00;100427.28;5018998;28;20137;-50
2023/09/20 05:43:09;;;;;;;1.42;0.68;;;;;;;23.68;100.00;100430.13;5017389;28;20129;-51
2023/09/20 05:45:36;;;;;;;1.02;0.60;;;;;;;23.68;100.00;100430.13;5012358;28;20502;-49
2023/09/20 05:48:03;;;;;;;1.85;0.80;;;;;;;23.64;100.00;100415.41;5009632;28;20049;-48
2023/09/20 05:50:33;;;;;;;1.20;0.70;;;;;;;23.66;100.00;100423.41;5012920;28;20135;-49
2023/09/20 05:53:10;;;;;;;3.40;0.80;;;;;;;23.68;100.00;100423.66;5011077;28;20038;-48
2023/09/20 05:55:38;;;;;;;0.43;0.40;;;;;;;23.66;100.00;100423.41;5012731;28;20054;-52
2023/09/20 05:58:06;;;;;;;1.83;0.70;;;;;;;23.66;100.00;100423.41;5022311;28;20096;-50
2023/09/20 06:00:35;;;;;;;1.30;0.80;;;;;;;23.66;100.00;100429.84;5010602;28;20112;-49
2023/09/20 06:03:04;;;;;;;2.83;0.90;;;;;;;23.63;100.00;100428.03;5017237;28;20045;-50
2023/09/20 06:05:33;;;;;;;0.65;0.55;;;;;;;23.65;100.00;100424.69;5033927;28;20045;-51
2023/09/20 06:08:00;;;;;;;0.93;0.65;;;;;;;23.65;100.00;100430.34;5022078;28;20048;-48
2023/09/20 06:10:26;;;;;;;1.50;0.77;;;;;;;23.67;100.00;100433.47;5023020;28;20508;-48
2023/09/20 06:12:53;;;;;;;3.78;0.82;;;;;;;23.69;100.00;100428.81;5028459;28;20056;-48
2023/09/20 06:15:20;;;;;;;1.92;0.50;;;;;;;23.69;100.00;100425.22;5027210;28;20080;-52
2023/09/20 06:17:49;;;;;;;2.40;0.60;;;;;;;23.70;100.00;100415.41;5012197;28;20137;-47
2023/09/20 06:20:19;;;;;;;2.20;0.52;;;;;;;23.69;100.00;100420.31;5018163;28;20136;-50
2023/09/20 06:22:48;;;;;;;3.42;0.88;;;;;;;23.69;100.00;100420.31;5016104;28;20077;-51
2023/09/20 06:25:15;;;;;;;0.95;0.63;;;;;;;23.70;100.00;100421.09;5013224;28;20077;-48
2023/09/20 06:27:42;;;;;;;2.03;0.70;;;;;;;23.66;100.00;100427.00;5020544;28;20123;-49
2023/09/20 06:30:14;;;;;;;2.47;0.93;;;;;;;23.66;100.00;100421.34;5029977;28;20089;-50
2023/09/20 06:32:42;;;;;;;1.77;0.80;;;;;;;23.66;100.00;100421.34;5019199;28;20141;-48
2023/09/20 06:35:10;;;;;;;2.85;0.80;;;;;;;23.64;100.00;100420.31;5009528;28;20054;-48
2023/09/20 06:37:40;;;;;;;4.07;1.02;;;;;;;23.64;100.00;100423.13;5019647;28;20140;-48
2023/09/20 06:40:22;;;;;;;2.25;1.48;;;;;;;23.64;100.00;100428.81;5009956;28;20042;-49
2023/09/20 06:42:52;;;;;;;2.85;0.90;;;;;;;23.63;100.00;100424.44;5017984;28;20046;-48
2023/09/20 06:45:20;;;;;;;3.47;1.10;;;;;;;23.62;100.00;100428.53;5014458;28;20125;-55
2023/09/20 06:47:46;;;;;;;1.60;0.88;;;;;;;23.64;100.00;100417.47;5009776;28;20100;-47
2023/09/20 06:50:13;;;;;;;3.97;0.73;;;;;;;23.64;100.00;100428.81;5009945;28;20096;-50
2023/09/20 06:52:42;;;;;;;3.13;0.90;;;;;;;23.62;100.00;100420.81;5015008;28;20057;-47
2023/09/20 06:55:13;;;;;;;2.83;1.13;;;;;;;23.64;100.00;100432.44;5020329;28;20041;-48
2023/09/20 06:57:41;;;;;;;1.08;0.73;;;;;;;23.62;100.00;100422.88;5022627;28;20511;-50
2023/09/20 07:02:50;;;;;;;3.78;1.05;;;;;;;23.61;100.00;100422.13;5012364;28;20199;-51
2023/09/20 07:05:17;;;;;;;2.10;1.10;;;;;;;23.61;100.00;100421.34;5016961;28;20054;-52
2023/09/20 07:07:45;;;;;;;4.10;0.80;;;;;;;23.61;100.00;100424.16;5014613;28;20052;-49
2023/09/20 07:10:11;;;;;;;2.28;1.00;;;;;;;23.62;100.00;100422.88;5010441;28;20580;-49
2023/09/20 07:12:38;;;;;;;4.63;1.35;;;;;;;23.58;100.00;100423.09;5011752;28;20064;-48
2023/09/20 07:15:09;;;;;;;4.75;1.50;;;;;;;23.55;100.00;100426.19;5025426;28;20368;-46
2023/09/20 07:17:35;;;;;;;7.13;1.83;;;;;;;23.52;100.00;100421.56;5027760;28;20073;-52
2023/09/20 07:20:14;;;;;;;6.25;1.85;;;;;;;23.52;100.00;100422.31;5021334;28;20061;-50
2023/09/20 07:22:42;;;;;;;4.90;1.73;;;;;;;23.51;100.00;100426.47;5012077;28;20049;-50
2023/09/20 07:25:16;;;;;;;8.07;2.72;;;;;;;23.50;100.00;100424.91;5017144;28;20105;-50
2023/09/20 07:27:44;;;;;;;6.10;1.90;;;;;;;23.49;100.00;100428.25;5017127;28;20124;-50
2023/09/20 07:30:19;;;;;;;5.82;1.95;;;;;;;23.50;100.00;100432.66;5013564;28;20096;-52
2023/09/20 07:32:47;;;;;;;2.80;1.60;;;;;;;23.49;100.00;100422.59;5008341;28;20466;-48
2023/09/20 07:35:39;;;;;;;8.02;1.85;;;;;;;23.49;100.00;100433.94;5009848;28;20380;-50
2023/09/20 07:41:08;;;;;;;9.60;2.05;;;;;;;23.48;100.00;100427.47;5009181;28;20038;-48
2023/09/20 07:43:38;;;;;;;7.20;2.10;;;;;;;23.45;100.00;100433.41;5011211;28;20096;-52
2023/09/20 07:46:07;;;;;;;4.55;1.95;;;;;;;23.42;100.00;100429.53;5012176;28;20058;-51
2023/09/20 07:48:37;;;;;;;9.43;2.15;;;;;;;23.41;100.00;100427.19;5011046;28;20107;-50
2023/09/20 07:51:06;;;;;;;6.10;2.03;;;;;;;23.43;100.00;100427.47;5022668;28;20049;-49
2023/09/20 07:53:32;;;;;;;10.23;1.90;;;;;;;23.45;100.00;100417.16;5016805;28;20053;-50
2023/09/20 07:56:00;;;;;;;8.02;1.88;;;;;;;23.48;100.00;100415.34;5014449;28;20049;-48
2023/09/20 07:58:28;;;;;;;5.35;2.13;;;;;;;23.48;100.00;100423.84;5009208;28;20974;-49
2023/09/20 08:00:56;;;;;;;7.03;2.30;;;;;;;23.46;100.00;100412.28;5014204;28;20052;-50
2023/09/20 08:03:23;;;;;;;5.03;2.25;;;;;;;23.42;100.00;100411.75;5015356;28;20132;-52
2023/09/20 08:05:53;;;;;;;4.00;1.70;;;;;;;23.42;100.00;100418.19;5019985;28;20569;-51
2023/09/20 08:08:20;;;;;;;7.63;2.45;;;;;;;23.40;100.00;100412.25;5015501;28;20152;-51
2023/09/20 08:10:48;;;;;;;6.32;2.15;;;;;;;23.40;100.00;100420.00;5013512;28;20072;-52
2023/09/20 08:13:32;;;;;;;7.15;2.60;;;;;;;23.42;100.00;100423.84;5010329;28;20119;-48
2023/09/20 08:16:02;;;;;;;7.68;2.08;;;;;;;23.39;100.00;100419.19;5022117;28;20057;-48
2023/09/20 08:21:15;;;;;;;6.72;2.17;;;;;;;23.38;100.00;100422.56;5014307;28;20137;-47
2023/09/20 08:59:53;;;;;;;5.55;1.88;;;;;;;23.29;100.00;100417.91;5019170;28;20617;-53
2023/09/20 09:02:24;;;;;;;4.10;1.80;;;;;;;23.31;100.00;100426.69;5020555;28;20077;-54
2023/09/20 09:04:53;;;;;;;5.70;2.30;;;;;;;23.29;100.00;100437.75;5016435;28;20128;-48
2023/09/20 09:07:23;;;;;;;8.57;2.40;;;;;;;23.27;100.00;100437.50;5012643;28;20053;-55
2023/09/20 09:09:50;;;;;;;7.55;1.75;;;;;;;23.26;100.00;100438.00;5020328;28;20045;-47
2023/09/20 09:12:17;;;;;;;6.30;2.17;;;;;;;23.23;100.00;100436.97;5012314;28;20124;-51
2023/09/20 09:14:47;;;;;;;6.88;1.90;;;;;;;23.25;100.00;100442.16;5011172;28;20592;-49
2023/09/20 09:17:14;;;;;;;6.82;1.90;;;;;;;23.26;100.00;100443.69;5016481;28;20050;-49
2023/09/20 09:19:41;;;;;;;5.05;2.10;;;;;;;23.24;100.00;100435.69;5026415;28;20154;-51
2023/09/20 09:22:09;;;;;;;6.93;2.15;;;;;;;23.24;100.00;100429.22;5021857;28;20049;-50
2023/09/20 09:24:47;;;;;;;7.38;2.13;;;;;;;23.23;100.00;100444.72;5026837;28;20073;-50
2023/09/20 09:27:15;;;;;;;4.68;1.80;;;;;;;23.24;100.00;100432.06;5024004;28;20088;-52
2023/09/20 09:29:43;;;;;;;9.98;1.80;;;;;;;23.21;100.00;100439.53;5013871;28;20052;-49
2023/09/20 09:32:10;;;;;;;5.90;1.67;;;;;;;23.21;100.00;100435.91;5014816;28;20050;-50
2023/09/20 09:34:38;;;;;;;6.47;1.55;;;;;;;23.22;100.00;100432.56;5011135;28;20073;-47
2023/09/20 09:37:04;;;;;;;5.07;1.88;;;;;;;23.22;100.00;100431.81;5014124;28;20574;-48
2023/09/20 09:39:33;;;;;;;7.00;2.08;;;;;;;23.21;100.00;100418.91;5011903;28;20081;-47
2023/09/20 09:42:02;;;;;;;4.30;1.83;;;;;;;23.19;100.00;100422.25;5019157;28;20590;-48
2023/09/20 09:44:48;;;;;;;2.83;1.58;;;;;;;23.18;100.00;100422.75;5027138;28;20053;-52
2023/09/20 09:47:17;;;;;;;6.10;1.60;;;;;;;23.18;100.00;100415.03;5024275;28;20081;-46
2023/09/20 09:49:48;;;;;;;4.63;1.73;;;;;;;23.19;100.00;100427.91;5028687;28;20053;-50
2023/09/20 09:52:16;;;;;;;6.10;2.40;;;;;;;23.19;100.00;100416.56;5010402;28;20215;-50
2023/09/20 09:54:46;;;;;;;6.50;2.00;;;;;;;23.15;100.00;100412.47;5010669;28;20080;-53
2023/09/20 09:57:13;;;;;;;5.80;2.13;;;;;;;23.17;100.00;100413.50;5023254;28;20107;-53
2023/09/20 09:59:39;;;;;;;3.83;1.55;;;;;;;23.17;100.00;100418.38;5026932;28;20073;-50
2023/09/20 10:02:20;;;;;;;4.57;1.50;;;;;;;23.19;100.00;100421.50;5016415;28;20060;-48
2023/09/20 10:05:00;;;;;;;4.35;1.67;;;;;;;23.19;100.00;100427.16;5016333;28;20060;-51
2023/09/20 10:07:38;;;;;;;3.92;1.50;;;;;;;23.16;100.00;100422.50;5025852;28;20103;-48
2023/09/20 10:10:13;;;;;;;8.13;1.98;;;;;;;23.18;100.00;100425.59;5024972;28;20464;-48
2023/09/20 10:12:44;;;;;;;3.53;1.60;;;;;;;23.17;100.00;100407.81;5027282;28;20072;-49
2023/09/20 10:15:14;;;;;;;3.50;1.60;;;;;;;23.18;100.00;100414.25;5018187;28;20045;-51
2023/09/20 10:17:50;;;;;;;5.32;1.27;;;;;;;23.15;100.00;100409.63;5021296;28;20053;-48
2023/09/20 10:20:18;;;;;;;5.13;1.58;;;;;;;23.16;100.00;100411.16;5024221;28;20064;-50
2023/09/20 10:22:51;;;;;;;5.35;1.90;;;;;;;23.17;100.00;100412.72;5017624;28;20125;-48
2023/09/20 10:25:34;;;;;;;6.05;1.48;;;;;;;23.15;100.00;100413.22;5024137;28;20408;-47
2023/09/20 10:28:09;;;;;;;4.78;1.73;;;;;;;23.14;100.00;100413.72;5025406;28;20041;-50
2023/09/20 10:31:01;;;;;;;5.40;1.73;;;;;;;23.14;100.00;100413.72;5023165;28;20041;-49
2023/09/20 10:33:55;;;;;;;2.97;1.30;;;;;;;23.17;100.00;100407.81;5014149;28;20148;-51
2023/09/20 10:36:28;;;;;;;5.75;1.50;;;;;;;23.17;100.00;100395.69;5023106;28;20155;-48
2023/09/20 10:39:17;;;;;;;5.13;1.80;;;;;;;23.15;100.00;100409.63;5012434;28;20900;-51
2023/09/20 10:41:45;;;;;;;5.13;1.77;;;;;;;23.14;100.00;100403.19;5014932;28;20041;-52
2023/09/20 10:44:38;;;;;;;3.33;1.58;;;;;;;23.13;100.00;100403.69;5017188;28;20046;-50
2023/09/20 10:47:19;;;;;;;2.92;1.30;;;;;;;23.15;100.00;100396.22;5017435;28;20135;-48
2023/09/20 10:49:55;;;;;;;5.93;1.33;;;;;;;23.15;100.00;100399.03;5014060;28;20087;-49
2023/09/20 10:52:33;;;;;;;3.72;1.88;;;;;;;23.16;100.00;100391.31;5022144;28;20123;-51
2023/09/20 10:55:24;;;;;;;4.93;1.63;;;;;;;23.16;100.00;100397.78;5026348;28;20041;-49
2023/09/20 10:57:51;;;;;;;3.05;1.48;;;;;;;23.15;100.00;100387.72;5017863;28;20117;-50
2023/09/20 11:00:30;;;;;;;4.43;1.70;;;;;;;23.15;100.00;100396.22;5019321;28;20221;-48
2023/09/20 11:02:58;;;;;;;5.05;1.40;;;;;;;23.16;100.00;100388.50;5010864;28;20167;-50
2023/09/20 11:05:26;;;;;;;9.35;2.38;;;;;;;23.16;100.00;100382.81;5010099;28;20399;-48
2023/09/20 11:07:54;;;;;;;6.07;1.60;;;;;;;23.16;100.00;100372.25;5020756;28;20049;-48
2023/09/20 11:10:21;;;;;;;5.70;1.77;;;;;;;23.20;100.00;100377.66;5021333;28;20128;-49
2023/09/20 11:12:50;;;;;;;5.90;1.67;;;;;;;23.22;100.00;100377.94;5015380;28;20098;-49
2023/09/20 11:15:16;;;;;;;6.35;1.60;;;;;;;23.23;100.00;100370.97;5010612;28;20509;-50
2023/09/20 11:17:43;;;;;;;5.22;1.70;;;;;;;23.25;100.00;100376.91;5020191;28;20065;-51
2023/09/20 11:20:13;;;;;;;6.90;2.00;;;;;;;23.23;100.00;100360.41;5014243;28;20049;-51
2023/09/20 11:22:41;;;;;;;5.93;1.83;;;;;;;23.22;100.00;100363.75;5017315;28;20058;-48
2023/09/20 11:25:08;;;;;;;8.07;1.80;;;;;;;23.27;100.00;100360.16;5016096;28;20639;-49
2023/09/20 11:27:36;;;;;;;4.07;1.70;;;;;;;23.30;100.00;100348.56;5014802;28;20154;-48
2023/09/20 11:30:08;;;;;;;9.73;2.00;;;;;;;23.29;100.00;100349.81;5014855;28;20133;-48
2023/09/20 11:32:38;;;;;;;10.93;1.98;;;;;;;23.30;100.00;100357.06;5010615;28;20057;-49
2023/09/20 11:35:06;;;;;;;6.32;1.80;;;;;;;23.30;100.00;100336.44;5019610;28;20462;-47
2023/09/20 11:37:35;;;;;;;7.10;1.65;;;;;;;23.32;100.00;100350.88;5019879;28;20191;-49
2023/09/20 11:40:04;;;;;;;6.85;1.80;;;;;;;23.31;100.00;100335.91;5014801;28;20435;-52
2023/09/20 11:42:33;;;;;;;6.38;1.88;;;;;;;23.34;100.00;100331.28;5008160;28;20500;-48
2023/09/20 11:45:07;;;;;;;5.97;2.05;;;;;;;23.33;100.00;100338.25;5015044;28;20057;-47
2023/09/20 11:47:54;;;;;;;7.15;1.70;;;;;;;23.32;100.00;100337.47;5012640;28;20052;-47
2023/09/20 11:50:27;;;;;;;3.40;1.65;;;;;;;23.34;100.00;100336.94;5019841;28;20494;-50
2023/09/20 11:52:54;;;;;;;7.18;1.80;;;;;;;23.35;100.00;100338.47;5015700;28;20053;-50
2023/09/20 11:55:21;;;;;;;5.47;2.22;;;;;;;23.33;100.00;100350.38;5010135;28;20046;-50
2023/09/20 11:57:49;;;;;;;3.88;1.70;;;;;;;23.36;100.00;100354.22;5010012;28;20057;-48
2023/09/20 12:00:18;;;;;;;3.92;1.58;;;;;;;23.36;100.00;100331.53;5023981;28;20053;-48
2023/09/20 12:02:45;;;;;;;6.70;1.65;;;;;;;23.37;100.00;100341.59;5023092;28;20682;-48
2023/09/20 12:05:12;;;;;;;4.88;1.60;;;;;;;23.38;100.00;100326.91;5010768;28;20050;-52
2023/09/20 12:07:51;;;;;;;4.22;1.73;;;;;;;23.39;100.00;100324.84;5020894;28;20128;-51
2023/09/20 12:10:18;;;;;;;9.32;1.83;;;;;;;23.38;100.00;100331.78;5015451;28;20127;-51
2023/09/20 12:12:44;;;;;;;7.18;1.70;;;;;;;23.42;100.00;100320.97;5012320;28;20103;-50